Terminal Aerodrome Forecast
Issued by NWS

Home | Current Version | Previous Version | Text Only | Print | Product List | Glossary On
Versions: 1 2 3 4 5 6 7 8 9 10 11 12
000
FTUS42 KMLB 211100
TAFISM
TAF
KISM 211137Z 2112/2212 07003KT P6SM BKN080 OVC250
     FM211400 15004KT P6SM SCT025 OVC060
     FM212000 17007KT P6SM VCSH SCT020 OVC040
     FM220300 15005KT P6SM VCSH SCT010 BKN020 OVC040
     FM220700 16003KT 5SM SHRA BKN015 OVC030=

USA.gov is the U.S. government's official web portal to all federal, state and local government web resources and services.